Date,TemperatureHighF,TemperatureAvgF,TemperatureLowF,DewpointHighF,DewpointAvgF,DewpointLowF,HumidityHigh,HumidityAvg,HumidityLow,PressureMaxIn,PressureMinIn,WindSpeedMaxMPH,WindSpeedAvgMPH,GustSpeedMaxMPH,PrecipitationSumIn
2013-5-1,83.8,69.4,54.5,66.2,59.5,52.0,92,72,49,29.96,29.85,13,1,13,0.01
2013-5-2,76.2,67.4,57.1,62.9,59.4,54.7,94,77,57,30.02,29.89,13,0,13,0.03
2013-5-3,73.8,61.4,42.9,62.0,55.2,40.9,95,81,61,29.90,29.62,23,2,23,0.70
2013-5-4,56.4,46.3,41.3,43.3,41.1,39.5,94,83,58,29.86,29.73,11,0,11,0.74
2013-5-5,61.5,51.7,42.0,52.2,47.3,40.0,94,86,68,29.83,29.70,12,1,12,0.00
2013-5-6,65.4,56.8,52.7,58.2,54.0,50.5,94,90,73,29.80,29.68,13,1,13,0.04
2013-5-7,74.0,61.7,51.3,61.2,56.1,49.9,97,83,56,29.88,29.79,11,1,11,0.01
2013-5-8,84.7,68.8,55.4,61.1,57.7,53.7,95,71,41,29.92,29.83,12,1,12,0.00
2013-5-9,82.5,71.6,58.5,65.8,61.4,56.2,93,72,53,29.92,29.79,19,1,19,0.00
2013-5-10,79.3,68.4,63.3,65.8,62.6,58.8,95,83,59,29.83,29.70,13,1,13,0.35
2013-5-11,74.0,61.6,55.1,59.6,52.4,38.7,92,73,50,30.00,29.82,16,2,16,0.00
2013-5-12,65.6,53.5,41.2,41.3,37.5,29.0,89,58,33,30.09,30.00,16,2,16,0.00
2013-5-13,74.5,56.9,37.7,47.8,40.8,35.6,94,61,30,30.14,30.01,12,0,12,0.00
2013-5-14,87.8,71.7,53.1,63.4,56.0,43.4,76,59,40,30.01,29.80,15,1,15,0.00
2013-5-15,86.4,75.3,65.6,64.0,58.9,55.3,71,58,40,29.92,29.80,13,1,14,0.00
2013-5-16,82.0,72.4,64.6,68.5,61.7,56.8,86,70,56,29.87,29.77,7,0,7,0.00
2013-5-17,71.8,66.7,63.6,67.4,63.8,60.2,95,91,82,29.87,29.79,11,1,11,0.31
2013-5-18,85.2,73.2,66.6,69.7,66.9,65.2,97,82,57,29.88,29.79,9,0,9,0.00
2013-5-19,91.7,79.4,69.1,76.1,71.2,66.3,96,78,53,29.81,29.72,13,1,13,0.00
2013-5-20,90.5,79.2,71.0,73.6,70.6,68.0,91,76,55,29.83,29.68,17,2,17,0.00
2013-5-21,81.2,70.3,65.2,70.3,66.1,63.2,95,87,68,29.81,29.66,23,2,23,1.34
2013-5-22,80.2,70.3,63.0,66.5,63.2,60.7,96,80,55,29.72,29.61,22,1,22,0.19
2013-5-23,74.1,66.9,56.6,61.9,57.8,49.1,93,73,57,30.03,29.72,20,3,20,0.00
2013-5-24,71.8,59.4,48.2,51.1,48.0,45.0,90,68,42,30.23,30.03,12,1,14,0.00
2013-5-25,79.7,62.6,46.2,56.4,51.5,44.6,95,71,38,30.22,30.03,10,0,10,0.00
2013-5-26,87.2,71.7,58.1,65.1,59.3,54.5,92,68,41,30.08,29.95,10,0,10,0.00
2013-5-27,86.4,74.6,60.3,68.6,61.9,55.3,86,66,46,29.96,29.80,18,1,18,0.00
2013-5-28,88.8,78.7,70.8,70.7,65.6,58.6,81,65,50,29.90,29.80,19,2,19,0.00
2013-5-29,88.5,76.9,61.3,70.5,64.5,56.8,87,67,48,29.95,29.81,18,1,18,0.00
2013-5-30,87.7,77.8,67.7,72.7,69.0,64.7,95,75,58,29.91,29.79,27,2,27,0.24
2013-5-31,82.2,74.4,68.1,75.0,70.4,66.2,95,87,77,29.87,29.73,20,2,20,0.27